Aviation Digital Data Service (ADDS)

Output produced by METARs form (0343 UTC 26 June 2019)
found at http://www.aviationweather.gov/metar/data/
 
Forecast for: FKKD (DOUALA (CIV/MIL), CM)
Text: TAF FKKD 252300Z 2600/2706 VRB03KT 9999 -DZ SCT003 BKN013 FEW016CB
Forecast period: 0000 UTC 26 June 2019 to 0600 UTC 27 June 2019
Forecast type: FROM: standard forecast or significant change
Winds: variable direction winds at 3 MPH (3 knots; 1.5 m/s)
Visibility: 6 or more miles 10+ km)
Ceiling: 1300 feet AGL
Clouds: scattered clouds at 300 feet AGL
broken clouds at 1300 feet AGL
few clouds at 1600 feet AGL
Weather: -DZ  (light drizzle)
Text: TEMPO 2602/2609 4000 RADZ
Forecast period: 0200 to 0900 UTC 26 June 2019
Forecast type: TEMPORARY: The following changes expected for less than half the time period
Visibility: 2.49 miles (4.01 km)
Ceiling: unknown
Clouds: missing
Weather: RA DZ  (moderate rain, moderate drizzle)